Time;durP1;ratioP1;P1;durP2;ratioP2;P2;SDS_P1;SDS_P2;PMS_P1;PMS_P2;Temp;Humidity;BMP_temperature;BMP_pressure;BME280_temperature;BME280_humidity;BME280_pressure;Samples;Min_cycle;Max_cycle;Signal;HPM_P1;HPM_P2
2022/10/16 00:01:33;;;;;;;;;;;14.70;99.90;;;;;;4973555;28;20278;-60
2022/10/16 00:03:59;;;;;;;;;;;14.70;99.90;;;;;;4969112;28;19914;-60
2022/10/16 00:06:25;;;;;;;;;;;14.80;99.90;;;;;;4974926;28;20015;-60
2022/10/16 00:08:51;;;;;;;;;;;14.80;99.90;;;;;;4968462;28;20013;-60
2022/10/16 00:11:24;;;;;;;;;;;14.90;99.90;;;;;;4970918;28;19917;-60
2022/10/16 00:13:50;;;;;;;;;;;14.90;99.90;;;;;;4965481;28;19959;-61
2022/10/16 00:19:19;;;;;;;;;;;14.30;99.90;;;;;;4978759;28;19924;-72
2022/10/16 00:21:44;;;;;;;;;;;13.40;99.90;;;;;;4971188;28;19909;-65
2022/10/16 00:24:10;;;;;;;;;;;12.90;99.90;;;;;;4972914;28;19910;-65
2022/10/16 00:26:36;;;;;;;;;;;13.00;99.90;;;;;;4956868;28;19910;-64
2022/10/16 00:29:02;;;;;;;;;;;12.80;99.90;;;;;;4970664;28;19969;-63
2022/10/16 00:31:29;;;;;;;;;;;12.70;99.90;;;;;;4971197;28;19937;-63
2022/10/16 00:33:55;;;;;;;;;;;12.80;99.90;;;;;;4966002;28;19918;-63
2022/10/16 00:36:21;;;;;;;;;;;12.60;99.90;;;;;;4972841;28;19921;-62
2022/10/16 00:38:49;;;;;;;;;;;12.40;99.90;;;;;;4969339;28;19977;-61
2022/10/16 00:41:16;;;;;;;;;;;12.20;99.90;;;;;;4975331;28;19949;-60
2022/10/16 00:43:43;;;;;;;;;;;12.10;99.90;;;;;;4964120;28;20259;-59
2022/10/16 00:46:12;;;;;;;;;;;12.10;99.90;;;;;;4977813;28;19909;-60
2022/10/16 00:48:38;;;;;;;;;;;12.20;99.90;;;;;;4974207;28;19918;-59
2022/10/16 00:51:05;;;;;;;;;;;12.40;99.90;;;;;;4971841;28;19981;-60
2022/10/16 00:53:32;;;;;;;;;;;12.50;99.90;;;;;;4972035;28;19918;-59
2022/10/16 00:55:58;;;;;;;;;;;12.60;99.90;;;;;;4969951;28;20279;-60
2022/10/16 00:58:23;;;;;;;;;;;12.70;99.90;;;;;;4975882;28;19921;-61
2022/10/16 01:00:49;;;;;;;;;;;12.90;99.90;;;;;;4969262;28;19910;-61
2022/10/16 01:03:27;;;;;;;;;;;13.00;99.90;;;;;;4993957;28;19920;-61
2022/10/16 01:06:04;;;;;;;;;;;13.10;99.90;;;;;;4969190;28;19910;-61
2022/10/16 01:08:43;;;;;;;;;;;13.20;99.90;;;;;;4974006;28;20009;-61
2022/10/16 01:11:14;;;;;;;;;;;13.30;99.90;;;;;;4968609;28;19984;-61
2022/10/16 01:13:42;;;;;;;;;;;13.20;99.90;;;;;;4968986;28;19952;-61
2022/10/16 01:16:28;;;;;;;;;;;13.40;99.90;;;;;;4973480;28;19910;-61
2022/10/16 01:19:13;;;;;;;;;;;13.40;99.90;;;;;;4959384;28;20375;-61
2022/10/16 01:21:41;;;;;;;;;;;13.40;99.90;;;;;;4984086;28;19918;-61
2022/10/16 01:24:19;;;;;;;;;;;13.40;99.90;;;;;;4974208;28;20053;-61
2022/10/16 01:27:03;;;;;;;;;;;13.40;99.90;;;;;;4970966;28;20351;-61
2022/10/16 01:29:44;;;;;;;;;;;13.30;99.90;;;;;;4963248;28;19914;-62
2022/10/16 01:32:15;;;;;;;;;;;13.30;99.90;;;;;;4971521;28;19918;-62
2022/10/16 01:34:49;;;;;;;;;;;13.20;99.90;;;;;;4973243;28;19910;-62
2022/10/16 01:37:25;;;;;;;;;;;13.10;99.90;;;;;;4962710;28;19917;-62
2022/10/16 01:39:53;;;;;;;;;;;12.90;99.90;;;;;;4962559;28;19917;-62
2022/10/16 01:42:23;;;;;;;;;;;12.90;99.90;;;;;;4973030;28;19918;-62
2022/10/16 01:44:50;;;;;;;;;;;12.80;99.90;;;;;;4967778;28;19924;-62
2022/10/16 01:47:17;;;;;;;;;;;12.90;99.90;;;;;;4973375;28;19914;-62
2022/10/16 01:49:43;;;;;;;;;;;13.00;99.90;;;;;;4968252;28;19910;-60
2022/10/16 01:52:15;;;;;;;;;;;13.00;99.90;;;;;;4972216;28;19948;-60
2022/10/16 01:54:42;;;;;;;;;;;13.00;99.90;;;;;;4965027;28;19956;-60
2022/10/16 01:57:08;;;;;;;;;;;13.20;99.90;;;;;;4964291;28;20010;-60
2022/10/16 01:59:35;;;;;;;;;;;13.00;99.90;;;;;;4970335;28;19919;-60
2022/10/16 02:02:05;;;;;;;;;;;12.90;99.90;;;;;;4970312;28;19914;-60
2022/10/16 02:04:51;;;;;;;;;;;13.10;99.90;;;;;;4977090;28;20001;-60
2022/10/16 02:07:17;;;;;;;;;;;13.30;99.90;;;;;;4973290;28;20012;-60
2022/10/16 02:09:43;;;;;;;;;;;13.40;99.90;;;;;;4978290;28;19918;-60
2022/10/16 02:12:11;;;;;;;;;;;13.40;99.90;;;;;;4976614;28;19972;-61
2022/10/16 02:14:38;;;;;;;;;;;13.40;99.90;;;;;;4971825;28;20057;-61
2022/10/16 02:17:10;;;;;;;;;;;13.40;99.90;;;;;;4970505;28;19914;-61
2022/10/16 02:19:35;;;;;;;;;;;13.50;99.90;;;;;;4975391;28;20448;-61
2022/10/16 02:22:03;;;;;;;;;;;13.70;99.90;;;;;;4977888;28;19910;-61
2022/10/16 02:24:43;;;;;;;;;;;13.80;99.90;;;;;;4973068;28;20057;-61
2022/10/16 02:27:30;;;;;;;;;;;13.80;99.90;;;;;;4969985;28;19909;-61
2022/10/16 02:30:07;;;;;;;;;;;13.80;99.90;;;;;;4969878;28;20350;-61
2022/10/16 02:32:34;;;;;;;;;;;13.60;99.90;;;;;;4972768;28;20270;-59
2022/10/16 02:35:00;;;;;;;;;;;13.50;99.90;;;;;;4973392;28;19914;-59
2022/10/16 02:37:26;;;;;;;;;;;13.30;99.90;;;;;;4975477;28;20366;-60
2022/10/16 02:39:52;;;;;;;;;;;13.30;99.90;;;;;;4970722;28;20001;-60
2022/10/16 02:42:18;;;;;;;;;;;13.20;99.90;;;;;;4973336;28;19995;-60
2022/10/16 02:44:44;;;;;;;;;;;13.10;99.90;;;;;;4975056;28;19925;-60
2022/10/16 02:47:09;;;;;;;;;;;12.90;99.90;;;;;;4966295;28;20282;-60
2022/10/16 02:49:35;;;;;;;;;;;12.80;99.90;;;;;;4979763;28;20354;-60
2022/10/16 02:52:00;;;;;;;;;;;12.80;99.90;;;;;;4973380;28;19910;-60
2022/10/16 02:54:26;;;;;;;;;;;12.80;99.90;;;;;;4977090;28;19925;-60
2022/10/16 02:56:51;;;;;;;;;;;12.90;99.90;;;;;;4969822;28;19914;-61
2022/10/16 02:59:17;;;;;;;;;;;12.90;99.90;;;;;;4982423;28;19960;-60
2022/10/16 03:04:46;;;;;;;;;;;12.90;99.90;;;;;;4969867;28;19917;-60
2022/10/16 03:07:11;;;;;;;;;;;12.80;99.90;;;;;;4972967;28;19925;-60
2022/10/16 03:09:37;;;;;;;;;;;12.80;99.90;;;;;;4978699;28;19913;-60
2022/10/16 03:12:02;;;;;;;;;;;12.80;99.90;;;;;;4973060;28;20322;-61
2022/10/16 03:14:28;;;;;;;;;;;12.50;99.90;;;;;;4972455;28;19914;-60
2022/10/16 03:16:54;;;;;;;;;;;12.60;99.90;;;;;;4971450;28;19913;-61
2022/10/16 03:19:19;;;;;;;;;;;12.50;99.90;;;;;;4970746;28;19914;-62
2022/10/16 03:21:45;;;;;;;;;;;12.40;99.90;;;;;;4974886;28;19941;-61
2022/10/16 03:24:10;;;;;;;;;;;12.40;99.90;;;;;;4978109;28;19957;-59
2022/10/16 03:26:36;;;;;;;;;;;12.40;99.90;;;;;;4978738;28;19917;-61
2022/10/16 03:29:03;;;;;;;;;;;12.30;99.90;;;;;;4967790;28;19917;-61
2022/10/16 03:31:29;;;;;;;;;;;12.40;99.90;;;;;;4973641;28;19941;-60
2022/10/16 03:33:55;;;;;;;;;;;12.30;99.90;;;;;;4976953;28;20277;-60
2022/10/16 03:36:20;;;;;;;;;;;12.40;99.90;;;;;;4976658;28;20287;-60
2022/10/16 03:38:46;;;;;;;;;;;12.40;99.90;;;;;;4974843;28;19977;-60
2022/10/16 03:41:11;;;;;;;;;;;12.40;99.90;;;;;;4971525;28;19917;-60
2022/10/16 03:43:37;;;;;;;;;;;12.40;99.90;;;;;;4978074;28;20305;-59
2022/10/16 03:46:02;;;;;;;;;;;12.40;99.90;;;;;;4973831;28;19914;-60
2022/10/16 03:48:28;;;;;;;;;;;12.30;99.90;;;;;;4969620;28;19914;-59
2022/10/16 03:50:54;;;;;;;;;;;12.50;99.90;;;;;;4972922;28;19932;-60
2022/10/16 03:53:20;;;;;;;;;;;12.30;99.90;;;;;;4976476;28;20323;-60
2022/10/16 03:55:46;;;;;;;;;;;12.20;99.90;;;;;;4971601;28;19910;-61
2022/10/16 03:58:11;;;;;;;;;;;12.10;99.90;;;;;;4968619;28;19922;-60
2022/10/16 04:00:41;;;;;;;;;;;12.20;99.90;;;;;;4979740;28;20369;-60
2022/10/16 04:03:06;;;;;;;;;;;12.50;99.90;;;;;;4974056;28;20376;-60
2022/10/16 04:05:32;;;;;;;;;;;12.50;99.90;;;;;;4979564;28;19909;-61
2022/10/16 04:07:58;;;;;;;;;;;12.50;99.90;;;;;;4976950;28;20363;-60
2022/10/16 04:10:23;;;;;;;;;;;12.60;99.90;;;;;;4973923;28;19910;-60
2022/10/16 04:12:49;;;;;;;;;;;12.60;99.90;;;;;;4974808;28;20005;-61
2022/10/16 04:15:14;;;;;;;;;;;12.70;99.90;;;;;;4977958;28;19914;-60
2022/10/16 04:17:40;;;;;;;;;;;12.50;99.90;;;;;;4972187;28;20005;-60
2022/10/16 04:20:05;;;;;;;;;;;12.50;99.90;;;;;;4981731;28;19933;-60
2022/10/16 04:22:31;;;;;;;;;;;12.70;99.90;;;;;;4975126;28;19910;-61
2022/10/16 04:24:56;;;;;;;;;;;12.70;99.90;;;;;;4978428;28;20049;-61
2022/10/16 04:27:22;;;;;;;;;;;12.70;99.90;;;;;;4978028;28;20048;-60
2022/10/16 04:29:48;;;;;;;;;;;12.70;99.90;;;;;;4972291;28;19948;-60
2022/10/16 04:32:13;;;;;;;;;;;12.60;99.90;;;;;;4975255;28;19910;-60
2022/10/16 04:34:39;;;;;;;;;;;12.70;99.90;;;;;;4984954;28;20289;-60
2022/10/16 04:37:05;;;;;;;;;;;12.80;99.90;;;;;;4977423;28;20384;-60
2022/10/16 04:39:31;;;;;;;;;;;13.00;99.90;;;;;;4973028;28;19914;-60
2022/10/16 04:41:56;;;;;;;;;;;12.90;99.90;;;;;;4989411;28;19916;-61
2022/10/16 04:44:22;;;;;;;;;;;12.90;99.90;;;;;;4973596;28;19918;-61
2022/10/16 04:46:50;;;;;;;;;;;12.90;99.90;;;;;;4971009;28;20009;-61
2022/10/16 04:49:15;;;;;;;;;;;12.70;99.90;;;;;;4978228;28;19910;-61
2022/10/16 04:51:41;;;;;;;;;;;12.60;99.90;;;;;;4974891;28;19920;-60
2022/10/16 04:54:06;;;;;;;;;;;12.60;99.90;;;;;;4961745;28;19996;-60
2022/10/16 04:56:32;;;;;;;;;;;12.40;99.90;;;;;;4980529;28;19941;-61
2022/10/16 04:58:57;;;;;;;;;;;12.40;99.90;;;;;;4978356;28;19918;-61
2022/10/16 05:01:23;;;;;;;;;;;12.30;99.90;;;;;;4971750;28;19917;-61
2022/10/16 05:03:49;;;;;;;;;;;12.40;99.90;;;;;;4972601;28;19940;-61
2022/10/16 05:06:14;;;;;;;;;;;12.50;99.90;;;;;;4974586;28;19964;-61
2022/10/16 05:08:40;;;;;;;;;;;12.40;99.90;;;;;;4970034;28;19910;-61
2022/10/16 05:11:05;;;;;;;;;;;12.30;99.90;;;;;;4973232;28;19910;-61
2022/10/16 05:13:31;;;;;;;;;;;12.20;99.90;;;;;;4974352;28;19914;-61
2022/10/16 05:15:57;;;;;;;;;;;12.10;99.90;;;;;;4973100;28;19917;-61
2022/10/16 05:18:22;;;;;;;;;;;12.00;99.90;;;;;;4972215;28;19918;-61
2022/10/16 05:20:48;;;;;;;;;;;11.80;99.90;;;;;;4970707;28;20384;-61
2022/10/16 05:23:13;;;;;;;;;;;11.70;99.90;;;;;;4974356;28;19917;-61
2022/10/16 05:25:41;;;;;;;;;;;11.60;99.90;;;;;;4975663;28;19918;-61
2022/10/16 05:28:07;;;;;;;;;;;11.60;99.90;;;;;;4978120;28;19945;-61
2022/10/16 05:30:33;;;;;;;;;;;11.60;99.90;;;;;;4976474;28;20279;-61
2022/10/16 05:32:59;;;;;;;;;;;11.60;99.90;;;;;;4970765;28;19914;-60
2022/10/16 05:35:24;;;;;;;;;;;11.50;99.90;;;;;;4972973;28;19916;-60
2022/10/16 05:37:50;;;;;;;;;;;11.50;99.90;;;;;;4972495;28;20021;-60
2022/10/16 05:40:16;;;;;;;;;;;11.50;99.90;;;;;;4972458;28;19921;-60
2022/10/16 05:42:42;;;;;;;;;;;11.50;99.90;;;;;;4974247;28;20008;-61
2022/10/16 05:45:09;;;;;;;;;;;11.60;99.90;;;;;;4974001;28;20400;-60
2022/10/16 05:47:34;;;;;;;;;;;11.50;99.90;;;;;;4977649;28;19986;-64
2022/10/16 05:50:00;;;;;;;;;;;11.70;99.90;;;;;;4972621;28;20278;-60
2022/10/16 05:52:26;;;;;;;;;;;11.60;99.90;;;;;;4974512;28;20282;-60
2022/10/16 05:54:52;;;;;;;;;;;11.50;99.90;;;;;;4975029;28;19910;-61
2022/10/16 05:57:17;;;;;;;;;;;11.50;99.90;;;;;;4971387;28;20449;-61
2022/10/16 05:59:43;;;;;;;;;;;11.40;99.90;;;;;;4976692;28;19917;-61
2022/10/16 06:02:12;;;;;;;;;;;11.40;99.90;;;;;;4973886;28;19910;-61
2022/10/16 06:04:38;;;;;;;;;;;11.40;99.90;;;;;;4971607;28;19937;-61
2022/10/16 06:07:03;;;;;;;;;;;11.40;99.90;;;;;;4972486;28;20380;-60
2022/10/16 06:09:29;;;;;;;;;;;11.30;99.90;;;;;;4963806;28;19921;-59
2022/10/16 06:11:54;;;;;;;;;;;11.30;99.90;;;;;;4975568;28;19917;-60
2022/10/16 06:14:20;;;;;;;;;;;11.30;99.90;;;;;;4973441;28;19910;-60
2022/10/16 06:16:45;;;;;;;;;;;11.40;99.90;;;;;;4966565;28;19915;-60
2022/10/16 06:19:11;;;;;;;;;;;11.30;99.90;;;;;;4974948;28;20318;-60
2022/10/16 06:21:36;;;;;;;;;;;11.20;99.90;;;;;;4978300;28;19910;-61
2022/10/16 06:24:02;;;;;;;;;;;11.00;99.90;;;;;;4975396;28;19914;-61
2022/10/16 06:26:29;;;;;;;;;;;10.90;99.90;;;;;;4971162;28;19910;-59
2022/10/16 06:28:55;;;;;;;;;;;10.90;99.90;;;;;;4977204;28;20262;-60
2022/10/16 06:31:22;;;;;;;;;;;10.80;99.90;;;;;;4972235;28;19910;-60
2022/10/16 06:33:50;;;;;;;;;;;10.60;99.90;;;;;;4975711;28;19914;-60
2022/10/16 06:36:17;;;;;;;;;;;10.60;99.90;;;;;;4975928;28;19914;-61
2022/10/16 06:38:43;;;;;;;;;;;10.70;99.90;;;;;;4971404;28;20326;-61
2022/10/16 06:41:14;;;;;;;;;;;10.70;99.90;;;;;;4972020;28;19910;-61
2022/10/16 06:43:39;;;;;;;;;;;10.70;99.90;;;;;;4974666;28;19977;-61
2022/10/16 06:46:07;;;;;;;;;;;10.60;99.90;;;;;;4970930;28;19910;-60
2022/10/16 06:48:33;;;;;;;;;;;10.50;99.90;;;;;;4972388;28;19910;-60
2022/10/16 06:50:58;;;;;;;;;;;10.50;99.90;;;;;;4972627;28;19964;-60
2022/10/16 06:53:24;;;;;;;;;;;10.50;99.90;;;;;;4970822;28;19926;-60
2022/10/16 06:55:50;;;;;;;;;;;10.30;99.90;;;;;;4968890;28;19961;-60
2022/10/16 06:58:16;;;;;;;;;;;10.30;99.90;;;;;;4969980;28;19956;-61
2022/10/16 07:00:41;;;;;;;;;;;10.20;99.90;;;;;;4967445;28;19950;-61
2022/10/16 07:03:10;;;;;;;;;;;10.20;99.90;;;;;;4970285;28;20362;-60
2022/10/16 07:05:39;;;;;;;;;;;10.30;99.90;;;;;;4968657;28;20006;-60
2022/10/16 07:08:05;;;;;;;;;;;10.20;99.90;;;;;;4970703;28;19910;-60
2022/10/16 07:10:32;;;;;;;;;;;10.20;99.90;;;;;;4970662;28;19917;-60
2022/10/16 07:12:57;;;;;;;;;;;10.20;99.90;;;;;;4971905;28;20359;-61
2022/10/16 07:15:24;;;;;;;;;;;10.20;99.90;;;;;;4974684;28;19997;-60
2022/10/16 07:17:49;;;;;;;;;;;10.40;99.90;;;;;;4966917;28;19925;-61
2022/10/16 07:20:15;;;;;;;;;;;10.50;99.90;;;;;;4970235;28;20287;-61
2022/10/16 07:22:41;;;;;;;;;;;10.40;99.90;;;;;;4976518;28;19916;-61
2022/10/16 07:25:06;;;;;;;;;;;10.40;99.90;;;;;;4974546;28;19917;-61
2022/10/16 07:27:32;;;;;;;;;;;10.40;99.90;;;;;;4977897;28;19917;-61
2022/10/16 07:29:58;;;;;;;;;;;10.40;99.90;;;;;;4966608;28;19910;-61
2022/10/16 07:32:25;;;;;;;;;;;10.50;99.90;;;;;;4975892;28;20704;-61
2022/10/16 07:34:51;;;;;;;;;;;10.50;99.90;;;;;;4974609;28;19968;-60
2022/10/16 07:37:17;;;;;;;;;;;10.50;99.90;;;;;;4985906;28;20429;-60
2022/10/16 07:39:43;;;;;;;;;;;10.60;99.90;;;;;;4984040;28;20000;-61
2022/10/16 07:42:08;;;;;;;;;;;10.60;99.90;;;;;;4974099;28;20361;-60
2022/10/16 07:44:34;;;;;;;;;;;10.60;99.90;;;;;;4981021;28;20382;-60
2022/10/16 07:46:59;;;;;;;;;;;10.60;99.90;;;;;;4978858;28;19913;-60
2022/10/16 07:49:25;;;;;;;;;;;10.60;99.90;;;;;;4974039;28;20384;-59
2022/10/16 07:51:51;;;;;;;;;;;10.70;99.90;;;;;;4972643;28;19997;-61
2022/10/16 07:54:16;;;;;;;;;;;10.80;99.90;;;;;;4975479;28;19917;-61
2022/10/16 07:56:42;;;;;;;;;;;11.00;99.90;;;;;;4973450;28;20010;-62
2022/10/16 07:59:07;;;;;;;;;;;10.90;99.90;;;;;;4976394;28;20381;-59
2022/10/16 08:01:33;;;;;;;;;;;11.00;99.90;;;;;;4969753;28;20270;-61
2022/10/16 08:03:59;;;;;;;;;;;11.00;99.90;;;;;;4969552;28;19944;-62
2022/10/16 08:06:24;;;;;;;;;;;11.10;99.90;;;;;;4969596;28;19909;-61
2022/10/16 08:08:50;;;;;;;;;;;11.10;99.90;;;;;;4976503;28;20420;-62
2022/10/16 08:11:15;;;;;;;;;;;11.00;99.90;;;;;;4976689;28;20345;-60
2022/10/16 08:13:41;;;;;;;;;;;11.00;99.90;;;;;;4972207;28;20254;-62
2022/10/16 08:16:08;;;;;;;;;;;11.10;99.90;;;;;;4977119;28;19910;-61
2022/10/16 08:18:37;;;;;;;;;;;11.20;99.90;;;;;;4973519;28;20317;-62
2022/10/16 08:21:04;;;;;;;;;;;11.30;99.90;;;;;;4971131;28;19951;-61
2022/10/16 08:23:29;;;;;;;;;;;11.40;99.90;;;;;;4969224;28;19914;-61
2022/10/16 08:25:56;;;;;;;;;;;11.50;99.90;;;;;;4969710;28;20329;-61
2022/10/16 08:28:22;;;;;;;;;;;11.50;99.90;;;;;;4969797;28;19910;-61
2022/10/16 08:30:48;;;;;;;;;;;11.60;99.90;;;;;;4963624;28;19917;-61
2022/10/16 08:33:13;;;;;;;;;;;11.80;99.90;;;;;;4965525;28;19922;-62
2022/10/16 08:35:40;;;;;;;;;;;12.00;99.90;;;;;;4968121;28;20433;-62
2022/10/16 08:38:06;;;;;;;;;;;12.10;99.90;;;;;;4968692;28;19968;-61
2022/10/16 08:40:32;;;;;;;;;;;12.20;99.90;;;;;;4968181;28;19916;-63
2022/10/16 08:43:17;;;;;;;;;;;12.30;99.90;;;;;;4963228;28;20005;-63
2022/10/16 08:45:49;;;;;;;;;;;12.40;99.90;;;;;;4970083;28;19949;-61
2022/10/16 08:48:53;;;;;;;;;;;12.50;99.90;;;;;;4970967;28;19944;-61
2022/10/16 08:51:21;;;;;;;;;;;12.60;99.90;;;;;;4928986;29;19918;-62
2022/10/16 08:53:53;;;;;;;;;;;12.70;99.90;;;;;;4927787;29;19911;-61
2022/10/16 08:56:19;;;;;;;;;;;12.80;99.90;;;;;;4927998;29;20375;-62
2022/10/16 08:58:46;;;;;;;;;;;12.80;99.90;;;;;;4925701;29;20564;-62
2022/10/16 09:01:12;;;;;;;;;;;12.90;99.90;;;;;;4924343;29;19918;-62
2022/10/16 09:03:38;;;;;;;;;;;12.90;99.90;;;;;;4927574;29;19910;-61
2022/10/16 09:06:16;;;;;;;;;;;12.90;99.90;;;;;;4931511;29;20271;-62
2022/10/16 09:08:48;;;;;;;;;;;13.00;99.90;;;;;;4929889;29;19917;-61
2022/10/16 09:11:34;;;;;;;;;;;13.10;99.90;;;;;;4930329;29;19911;-59
2022/10/16 09:14:18;;;;;;;;;;;13.20;99.90;;;;;;4914892;29;20555;-62
2022/10/16 09:16:46;;;;;;;;;;;13.30;99.90;;;;;;4929741;29;19906;-63
2022/10/16 09:19:11;;;;;;;;;;;13.30;99.90;;;;;;4933633;29;20501;-60
2022/10/16 09:21:40;;;;;;;;;;;13.30;99.90;;;;;;4942417;28;19916;-62
2022/10/16 09:24:14;;;;;;;;;;;13.30;99.90;;;;;;4971692;28;19996;-62
2022/10/16 09:26:39;;;;;;;;;;;13.40;99.90;;;;;;4970184;28;19972;-62
2022/10/16 09:29:05;;;;;;;;;;;13.40;99.90;;;;;;4972906;28;20376;-60
2022/10/16 09:31:30;;;;;;;;;;;13.50;99.90;;;;;;4968979;28;20004;-61
2022/10/16 09:34:00;;;;;;;;;;;13.60;99.90;;;;;;4970816;28;19910;-61
2022/10/16 09:36:27;;;;;;;;;;;13.70;99.90;;;;;;4973399;28;19940;-61
2022/10/16 09:39:06;;;;;;;;;;;13.90;99.90;;;;;;4971895;28;20358;-65
2022/10/16 09:41:34;;;;;;;;;;;14.20;99.90;;;;;;4969309;28;19934;-62
2022/10/16 09:44:00;;;;;;;;;;;14.50;99.90;;;;;;4966723;28;19930;-61
2022/10/16 09:46:35;;;;;;;;;;;14.80;99.90;;;;;;4979814;28;19910;-62
2022/10/16 09:49:05;;;;;;;;;;;15.00;99.90;;;;;;4977011;28;19968;-61
2022/10/16 09:51:35;;;;;;;;;;;15.30;99.90;;;;;;4993929;28;20279;-61
2022/10/16 09:54:09;;;;;;;;;;;15.50;99.90;;;;;;4978856;28;19947;-63
2022/10/16 09:56:36;;;;;;;;;;;15.80;99.90;;;;;;4982294;28;19909;-63
2022/10/16 09:59:26;;;;;;;;;;;16.00;99.90;;;;;;4970461;28;20285;-63
2022/10/16 10:01:52;;;;;;;;;;;16.10;99.90;;;;;;4963553;28;20389;-63
2022/10/16 10:04:22;;;;;;;;;;;16.30;99.90;;;;;;4971924;28;19949;-61
2022/10/16 10:06:55;;;;;;;;;;;16.30;99.90;;;;;;4980416;28;19917;-62
2022/10/16 10:09:29;;;;;;;;;;;16.30;99.90;;;;;;4980265;28;19909;-62
2022/10/16 10:11:56;;;;;;;;;;;16.50;99.90;;;;;;4966023;28;19910;-61
2022/10/16 10:14:30;;;;;;;;;;;16.60;99.90;;;;;;4981321;28;19933;-61
2022/10/16 10:17:05;;;;;;;;;;;16.70;99.90;;;;;;4975553;28;19914;-61
2022/10/16 10:19:38;;;;;;;;;;;16.70;99.90;;;;;;4988849;28;19917;-61
2022/10/16 10:22:16;;;;;;;;;;;16.70;99.90;;;;;;4982054;28;20331;-61
2022/10/16 10:24:41;;;;;;;;;;;16.80;99.90;;;;;;4968779;28;20008;-62
2022/10/16 10:27:11;;;;;;;;;;;16.90;99.90;;;;;;4976089;28;19955;-60
2022/10/16 10:29:53;;;;;;;;;;;17.00;99.90;;;;;;4979567;28;20306;-63
2022/10/16 10:32:25;;;;;;;;;;;17.10;99.90;;;;;;4967872;28;19973;-62
2022/10/16 10:35:00;;;;;;;;;;;17.20;99.90;;;;;;4970650;28;20388;-62
2022/10/16 10:37:25;;;;;;;;;;;17.40;99.90;;;;;;4978394;28;19932;-62
2022/10/16 10:40:09;;;;;;;;;;;17.40;99.90;;;;;;4971402;28;20008;-63
2022/10/16 10:42:42;;;;;;;;;;;17.50;99.90;;;;;;4973093;28;19933;-63
2022/10/16 10:45:07;;;;;;;;;;;17.50;99.90;;;;;;4974136;28;20266;-63
2022/10/16 10:47:42;;;;;;;;;;;17.50;99.90;;;;;;4979674;28;19917;-62
2022/10/16 10:50:22;;;;;;;;;;;17.30;99.90;;;;;;4967031;28;20000;-63
2022/10/16 10:52:53;;;;;;;;;;;17.20;99.90;;;;;;4972957;28;19916;-62
2022/10/16 10:55:33;;;;;;;;;;;17.20;99.90;;;;;;4975266;28;20391;-63
2022/10/16 10:58:08;;;;;;;;;;;17.20;99.90;;;;;;4977595;28;19965;-62
2022/10/16 11:00:53;;;;;;;;;;;17.10;99.90;;;;;;4972408;28;19917;-63
2022/10/16 11:03:34;;;;;;;;;;;17.00;99.90;;;;;;4978454;28;20282;-63
2022/10/16 11:06:06;;;;;;;;;;;17.10;99.90;;;;;;4973233;28;19937;-63
2022/10/16 11:08:37;;;;;;;;;;;17.20;99.90;;;;;;4982129;28;20342;-63
2022/10/16 11:11:14;;;;;;;;;;;17.40;99.90;;;;;;4976333;28;19910;-62
2022/10/16 11:13:59;;;;;;;;;;;17.50;99.90;;;;;;4978583;28;20285;-61
2022/10/16 11:16:30;;;;;;;;;;;17.70;99.90;;;;;;4973450;28;19932;-62
2022/10/16 11:19:01;;;;;;;;;;;17.90;99.90;;;;;;4977650;28;19925;-63
2022/10/16 11:21:29;;;;;;;;;;;18.00;99.90;;;;;;4975128;28;19917;-63
2022/10/16 11:24:21;;;;;;;;;;;18.10;99.90;;;;;;4979046;28;20339;-62
2022/10/16 11:26:52;;;;;;;;;;;18.10;99.90;;;;;;4958382;28;19910;-63
2022/10/16 11:29:22;;;;;;;;;;;18.30;99.90;;;;;;4978325;28;19917;-63
2022/10/16 11:31:51;;;;;;;;;;;18.10;99.90;;;;;;4985752;28;19917;-62
2022/10/16 11:34:28;;;;;;;;;;;18.10;99.90;;;;;;4971780;28;19941;-62
2022/10/16 11:36:53;;;;;;;;;;;18.10;99.90;;;;;;4969302;28;20342;-63
2022/10/16 11:39:31;;;;;;;;;;;18.20;99.90;;;;;;4970555;28;19925;-64
2022/10/16 11:42:03;;;;;;;;;;;18.20;99.90;;;;;;4976246;28;19933;-62
2022/10/16 11:44:42;;;;;;;;;;;18.40;99.90;;;;;;4970826;28;19948;-62
2022/10/16 11:47:16;;;;;;;;;;;18.50;99.90;;;;;;4970567;28;19910;-63
2022/10/16 11:49:43;;;;;;;;;;;18.60;99.90;;;;;;4970866;28;19910;-62
2022/10/16 11:52:20;;;;;;;;;;;18.70;99.90;;;;;;4971506;28;20009;-61
2022/10/16 11:54:55;;;;;;;;;;;18.80;99.90;;;;;;4981592;28;19910;-62
2022/10/16 11:57:23;;;;;;;;;;;18.80;99.90;;;;;;4985843;28;19965;-62
2022/10/16 11:59:49;;;;;;;;;;;18.60;99.90;;;;;;4973708;28;19917;-63
2022/10/16 12:02:33;;;;;;;;;;;18.50;99.90;;;;;;4971750;28;19918;-63
2022/10/16 12:05:02;;;;;;;;;;;18.60;99.90;;;;;;4974677;28;19917;-62
2022/10/16 12:07:32;;;;;;;;;;;18.60;99.90;;;;;;4969967;28;20004;-62
2022/10/16 12:10:00;;;;;;;;;;;18.50;99.90;;;;;;4967594;28;19933;-61
2022/10/16 12:12:27;;;;;;;;;;;18.50;99.90;;;;;;4970624;28;20056;-62
2022/10/16 12:15:00;;;;;;;;;;;18.40;99.90;;;;;;4963142;28;20263;-62
2022/10/16 12:17:34;;;;;;;;;;;18.30;99.90;;;;;;4976516;28;20000;-61
2022/10/16 12:20:12;;;;;;;;;;;18.20;99.90;;;;;;4977979;28;19910;-62
2022/10/16 12:22:46;;;;;;;;;;;18.20;99.90;;;;;;4981898;28;20004;-62
2022/10/16 12:25:27;;;;;;;;;;;18.20;99.90;;;;;;4967078;28;19918;-62
2022/10/16 12:27:54;;;;;;;;;;;18.20;99.90;;;;;;4971045;28;19933;-62
2022/10/16 12:30:24;;;;;;;;;;;18.10;99.90;;;;;;4973653;28;20286;-63
2022/10/16 12:32:53;;;;;;;;;;;18.20;99.90;;;;;;4976464;28;19946;-63
2022/10/16 12:35:21;;;;;;;;;;;18.20;99.90;;;;;;4972399;28;19963;-63
2022/10/16 12:37:46;;;;;;;;;;;18.00;99.90;;;;;;4970560;28;19914;-62
2022/10/16 12:40:13;;;;;;;;;;;17.90;99.90;;;;;;4969181;28;19957;-62
2022/10/16 12:42:44;;;;;;;;;;;17.80;99.90;;;;;;4969180;28;19910;-62
2022/10/16 12:45:33;;;;;;;;;;;17.90;99.90;;;;;;4952529;28;19918;-63
2022/10/16 12:48:05;;;;;;;;;;;17.80;99.90;;;;;;4958713;28;19910;-61
2022/10/16 12:50:35;;;;;;;;;;;17.80;99.90;;;;;;4958264;28;19910;-62
2022/10/16 12:53:02;;;;;;;;;;;17.80;99.90;;;;;;4955454;28;19941;-63
2022/10/16 12:55:32;;;;;;;;;;;17.80;99.90;;;;;;4958071;28;19989;-62
2022/10/16 12:57:57;;;;;;;;;;;17.70;99.90;;;;;;4953197;28;19918;-62
2022/10/16 13:00:33;;;;;;;;;;;17.70;99.90;;;;;;4957485;28;19910;-63
2022/10/16 13:03:18;;;;;;;;;;;17.70;99.90;;;;;;4959330;28;19910;-62
2022/10/16 13:05:58;;;;;;;;;;;17.60;99.90;;;;;;4958818;28;19910;-63
2022/10/16 13:08:34;;;;;;;;;;;17.50;99.90;;;;;;4947409;28;19935;-64
2022/10/16 13:11:09;;;;;;;;;;;17.60;99.90;;;;;;4950877;28;19993;-64
2022/10/16 13:13:53;;;;;;;;;;;17.50;99.90;;;;;;4949468;28;19910;-63
2022/10/16 13:16:25;;;;;;;;;;;17.50;99.90;;;;;;4945094;28;19920;-63
2022/10/16 13:19:17;;;;;;;;;;;17.40;99.90;;;;;;4947690;28;19930;-63
2022/10/16 13:21:57;;;;;;;;;;;17.40;99.90;;;;;;4952519;28;19938;-61
2022/10/16 13:24:32;;;;;;;;;;;17.40;99.90;;;;;;4947697;28;20322;-62
2022/10/16 13:27:13;;;;;;;;;;;17.30;99.90;;;;;;4949726;28;19911;-62
2022/10/16 13:29:41;;;;;;;;;;;17.30;99.90;;;;;;4948220;28;19911;-62
2022/10/16 13:32:09;;;;;;;;;;;17.20;99.90;;;;;;4949296;28;20340;-62
2022/10/16 13:34:42;;;;;;;;;;;17.20;99.90;;;;;;4951645;28;20008;-63
2022/10/16 13:37:16;;;;;;;;;;;17.20;99.90;;;;;;4951068;28;19910;-63
2022/10/16 13:39:46;;;;;;;;;;;17.20;99.90;;;;;;4946922;28;19922;-63
2022/10/16 13:42:30;;;;;;;;;;;17.10;99.90;;;;;;4950292;28;19910;-62
2022/10/16 13:44:56;;;;;;;;;;;17.00;99.90;;;;;;4960021;28;19918;-62
2022/10/16 13:47:30;;;;;;;;;;;17.00;99.90;;;;;;4969115;28;19910;-61
2022/10/16 13:50:04;;;;;;;;;;;17.00;99.90;;;;;;4966403;28;20047;-60
2022/10/16 13:52:30;;;;;;;;;;;17.00;99.90;;;;;;4968386;28;19918;-62
2022/10/16 13:54:55;;;;;;;;;;;16.90;99.90;;;;;;4969014;28;19924;-60
2022/10/16 13:57:24;;;;;;;;;;;16.90;99.90;;;;;;4971793;28;21617;-62
2022/10/16 13:59:49;;;;;;;;;;;17.00;99.90;;;;;;4960135;28;20547;-62
2022/10/16 14:02:15;;;;;;;;;;;17.10;99.90;;;;;;4972062;28;19910;-63
2022/10/16 14:04:45;;;;;;;;;;;17.10;99.90;;;;;;4972444;28;20428;-63
2022/10/16 14:07:14;;;;;;;;;;;17.00;99.90;;;;;;4974266;28;19956;-62
2022/10/16 14:09:43;;;;;;;;;;;16.90;99.90;;;;;;4971545;28;20255;-62
2022/10/16 14:12:11;;;;;;;;;;;16.90;99.90;;;;;;4971480;28;19917;-63
2022/10/16 14:14:46;;;;;;;;;;;16.80;99.90;;;;;;4976263;28;19914;-62
2022/10/16 14:17:15;;;;;;;;;;;16.70;99.90;;;;;;4967406;28;20370;-62
2022/10/16 14:19:45;;;;;;;;;;;16.70;99.90;;;;;;4970155;28;19918;-63
2022/10/16 14:22:32;;;;;;;;;;;16.80;99.90;;;;;;4970401;28;19909;-63
2022/10/16 14:24:58;;;;;;;;;;;16.60;99.90;;;;;;4970887;28;19910;-63
2022/10/16 14:27:37;;;;;;;;;;;16.60;99.90;;;;;;4967892;28;19917;-61
2022/10/16 14:30:15;;;;;;;;;;;16.50;99.90;;;;;;4970839;28;19914;-62
2022/10/16 14:33:04;;;;;;;;;;;16.40;99.90;;;;;;4969087;28;19914;-62
2022/10/16 14:35:38;;;;;;;;;;;16.30;99.90;;;;;;4976983;28;19910;-63